sensor_id;sensor_type;location;lat;lon;timestamp;pressure;altitude;pressure_sealevel;temperature;humidity
29247;BME280;16272;48.188;9.964;2023-04-07T00:01:42;95852.38;;;6.95;67.91
29247;BME280;16272;48.188;9.964;2023-04-07T00:04:09;95851.50;;;6.85;68.59
29247;BME280;16272;48.188;9.964;2023-04-07T00:06:34;95842.88;;;6.83;68.65
29247;BME280;16272;48.188;9.964;2023-04-07T00:09:00;95850.16;;;6.58;71.66
29247;BME280;16272;48.188;9.964;2023-04-07T00:11:25;95850.78;;;6.83;69.38
29247;BME280;16272;48.188;9.964;2023-04-07T00:13:51;95846.13;;;6.42;69.68
29247;BME280;16272;48.188;9.964;2023-04-07T00:16:16;95842.91;;;6.39;69.27
29247;BME280;16272;48.188;9.964;2023-04-07T00:18:41;95840.06;;;6.31;69.64
29247;BME280;16272;48.188;9.964;2023-04-07T00:21:07;95836.84;;;6.27;68.74
29247;BME280;16272;48.188;9.964;2023-04-07T00:23:34;95835.09;;;6.49;69.95
29247;BME280;16272;48.188;9.964;2023-04-07T00:26:00;95836.53;;;6.53;68.53
29247;BME280;16272;48.188;9.964;2023-04-07T00:28:25;95827.38;;;6.57;67.97
29247;BME280;16272;48.188;9.964;2023-04-07T00:30:50;95826.38;;;6.69;68.21
29247;BME280;16272;48.188;9.964;2023-04-07T00:33:16;95828.84;;;6.50;68.81
29247;BME280;16272;48.188;9.964;2023-04-07T00:35:41;95817.41;;;6.60;69.35
29247;BME280;16272;48.188;9.964;2023-04-07T00:38:06;95824.25;;;6.63;68.98
29247;BME280;16272;48.188;9.964;2023-04-07T00:40:32;95819.00;;;6.52;69.49
29247;BME280;16272;48.188;9.964;2023-04-07T00:43:01;95811.78;;;6.54;69.18
29247;BME280;16272;48.188;9.964;2023-04-07T00:45:26;95806.66;;;6.73;68.67
29247;BME280;16272;48.188;9.964;2023-04-07T00:47:51;95802.50;;;6.38;70.21
29247;BME280;16272;48.188;9.964;2023-04-07T00:50:17;95806.09;;;6.37;70.28
29247;BME280;16272;48.188;9.964;2023-04-07T00:52:43;95798.16;;;6.49;69.77
29247;BME280;16272;48.188;9.964;2023-04-07T00:55:09;95794.75;;;6.58;69.61
29247;BME280;16272;48.188;9.964;2023-04-07T00:57:34;95789.53;;;6.47;69.96
29247;BME280;16272;48.188;9.964;2023-04-07T01:00:02;95792.69;;;6.29;70.50
29247;BME280;16272;48.188;9.964;2023-04-07T01:02:42;95781.16;;;6.09;71.41
29247;BME280;16272;48.188;9.964;2023-04-07T01:05:25;95778.63;;;6.07;72.17
29247;BME280;16272;48.188;9.964;2023-04-07T01:10:41;95765.09;;;6.12;71.00
29247;BME280;16272;48.188;9.964;2023-04-07T01:13:33;95765.16;;;6.22;71.32
29247;BME280;16272;48.188;9.964;2023-04-07T01:16:04;95759.84;;;6.33;71.02
29247;BME280;16272;48.188;9.964;2023-04-07T01:18:32;95758.38;;;6.40;70.52
29247;BME280;16272;48.188;9.964;2023-04-07T01:21:02;95758.81;;;6.46;69.85
29247;BME280;16272;48.188;9.964;2023-04-07T01:23:58;95762.13;;;6.38;70.44
29247;BME280;16272;48.188;9.964;2023-04-07T01:26:28;95759.41;;;6.28;71.07
29247;BME280;16272;48.188;9.964;2023-04-07T01:29:30;95754.25;;;6.48;69.13
29247;BME280;16272;48.188;9.964;2023-04-07T01:31:59;95752.44;;;6.27;70.32
29247;BME280;16272;48.188;9.964;2023-04-07T01:34:26;95750.75;;;6.26;70.21
29247;BME280;16272;48.188;9.964;2023-04-07T01:36:54;95747.91;;;6.18;71.42
29247;BME280;16272;48.188;9.964;2023-04-07T01:39:21;95748.16;;;6.15;71.26
29247;BME280;16272;48.188;9.964;2023-04-07T01:41:48;95735.16;;;6.23;71.10
29247;BME280;16272;48.188;9.964;2023-04-07T01:44:14;95737.44;;;5.95;71.74
29247;BME280;16272;48.188;9.964;2023-04-07T01:46:40;95729.56;;;5.84;72.92
29247;BME280;16272;48.188;9.964;2023-04-07T01:49:06;95733.78;;;6.19;70.16
29247;BME280;16272;48.188;9.964;2023-04-07T01:51:32;95732.41;;;6.24;71.43
29247;BME280;16272;48.188;9.964;2023-04-07T01:53:59;95729.03;;;6.34;70.56
29247;BME280;16272;48.188;9.964;2023-04-07T01:56:26;95718.31;;;6.14;71.70
29247;BME280;16272;48.188;9.964;2023-04-07T01:58:52;95716.00;;;6.21;70.48
29247;BME280;16272;48.188;9.964;2023-04-07T02:01:17;95710.75;;;6.21;71.27
29247;BME280;16272;48.188;9.964;2023-04-07T02:03:52;95713.78;;;6.37;70.58
29247;BME280;16272;48.188;9.964;2023-04-07T02:06:22;95715.84;;;6.34;70.19
29247;BME280;16272;48.188;9.964;2023-04-07T02:08:53;95710.91;;;6.08;71.63
29247;BME280;16272;48.188;9.964;2023-04-07T02:11:20;95711.50;;;6.12;71.80
29247;BME280;16272;48.188;9.964;2023-04-07T02:13:46;95701.88;;;6.22;71.11
29247;BME280;16272;48.188;9.964;2023-04-07T02:16:12;95704.13;;;6.27;71.21
29247;BME280;16272;48.188;9.964;2023-04-07T02:18:39;95699.03;;;6.14;71.72
29247;BME280;16272;48.188;9.964;2023-04-07T02:21:14;95701.03;;;5.89;72.15
29247;BME280;16272;48.188;9.964;2023-04-07T02:23:39;95698.84;;;6.05;72.06
29247;BME280;16272;48.188;9.964;2023-04-07T02:26:05;95691.88;;;5.93;72.23
29247;BME280;16272;48.188;9.964;2023-04-07T02:28:30;95693.09;;;5.89;72.10
29247;BME280;16272;48.188;9.964;2023-04-07T02:30:55;95691.75;;;6.06;72.05
29247;BME280;16272;48.188;9.964;2023-04-07T02:33:21;95684.22;;;5.90;72.01
29247;BME280;16272;48.188;9.964;2023-04-07T02:35:46;95687.78;;;5.68;73.75
29247;BME280;16272;48.188;9.964;2023-04-07T02:38:11;95683.13;;;6.04;72.10
29247;BME280;16272;48.188;9.964;2023-04-07T02:40:37;95676.56;;;5.87;73.02
29247;BME280;16272;48.188;9.964;2023-04-07T02:43:02;95680.38;;;5.94;72.33
29247;BME280;16272;48.188;9.964;2023-04-07T02:45:29;95685.31;;;5.99;71.49
29247;BME280;16272;48.188;9.964;2023-04-07T02:47:55;95680.91;;;5.77;72.14
29247;BME280;16272;48.188;9.964;2023-04-07T02:50:22;95679.69;;;5.92;71.32
29247;BME280;16272;48.188;9.964;2023-04-07T02:52:50;95678.94;;;5.69;72.24
29247;BME280;16272;48.188;9.964;2023-04-07T02:55:15;95672.00;;;6.00;71.64
29247;BME280;16272;48.188;9.964;2023-04-07T02:57:42;95667.63;;;6.11;72.01
29247;BME280;16272;48.188;9.964;2023-04-07T03:00:08;95672.66;;;6.14;71.89
29247;BME280;16272;48.188;9.964;2023-04-07T03:02:34;95677.16;;;6.23;71.53
29247;BME280;16272;48.188;9.964;2023-04-07T03:04:59;95659.63;;;6.33;69.98
29247;BME280;16272;48.188;9.964;2023-04-07T03:07:24;95659.81;;;6.41;69.93
29247;BME280;16272;48.188;9.964;2023-04-07T03:09:50;95654.53;;;6.41;69.10
29247;BME280;16272;48.188;9.964;2023-04-07T03:12:15;95662.63;;;6.50;69.83
29247;BME280;16272;48.188;9.964;2023-04-07T03:14:41;95656.19;;;6.42;70.33
29247;BME280;16272;48.188;9.964;2023-04-07T03:17:06;95657.16;;;6.41;68.45
29247;BME280;16272;48.188;9.964;2023-04-07T03:19:33;95654.00;;;6.48;68.47
29247;BME280;16272;48.188;9.964;2023-04-07T03:21:59;95645.81;;;6.51;67.54
29247;BME280;16272;48.188;9.964;2023-04-07T03:24:24;95650.91;;;6.42;69.31
29247;BME280;16272;48.188;9.964;2023-04-07T03:26:50;95648.72;;;6.48;70.02
29247;BME280;16272;48.188;9.964;2023-04-07T03:29:15;95646.03;;;6.38;71.01
29247;BME280;16272;48.188;9.964;2023-04-07T03:31:42;95645.88;;;6.39;70.04
29247;BME280;16272;48.188;9.964;2023-04-07T03:34:08;95639.28;;;6.45;70.77
29247;BME280;16272;48.188;9.964;2023-04-07T03:36:33;95646.81;;;6.50;70.43
29247;BME280;16272;48.188;9.964;2023-04-07T03:38:58;95637.66;;;6.33;70.70
29247;BME280;16272;48.188;9.964;2023-04-07T03:41:24;95639.78;;;6.39;70.86
29247;BME280;16272;48.188;9.964;2023-04-07T03:43:49;95639.41;;;6.22;70.37
29247;BME280;16272;48.188;9.964;2023-04-07T03:46:15;95633.38;;;6.32;69.59
29247;BME280;16272;48.188;9.964;2023-04-07T03:48:40;95632.97;;;6.36;70.45
29247;BME280;16272;48.188;9.964;2023-04-07T03:51:06;95631.56;;;6.32;71.64
29247;BME280;16272;48.188;9.964;2023-04-07T03:53:31;95629.53;;;6.46;69.52
29247;BME280;16272;48.188;9.964;2023-04-07T03:55:57;95624.63;;;6.62;66.92
29247;BME280;16272;48.188;9.964;2023-04-07T03:58:22;95625.56;;;6.51;66.76
29247;BME280;16272;48.188;9.964;2023-04-07T04:00:47;95616.53;;;6.54;67.83
29247;BME280;16272;48.188;9.964;2023-04-07T04:03:20;95616.53;;;6.54;69.29
29247;BME280;16272;48.188;9.964;2023-04-07T04:05:45;95615.22;;;6.38;70.13
29247;BME280;16272;48.188;9.964;2023-04-07T04:08:10;95611.50;;;5.66;73.67
29247;BME280;16272;48.188;9.964;2023-04-07T04:10:42;95612.91;;;5.70;72.96
29247;BME280;16272;48.188;9.964;2023-04-07T04:13:07;95606.88;;;5.80;72.72
29247;BME280;16272;48.188;9.964;2023-04-07T04:15:32;95611.13;;;5.71;73.50
29247;BME280;16272;48.188;9.964;2023-04-07T04:17:58;95616.53;;;5.69;74.32
29247;BME280;16272;48.188;9.964;2023-04-07T04:20:23;95612.78;;;6.04;72.65
29247;BME280;16272;48.188;9.964;2023-04-07T04:22:48;95608.94;;;6.09;72.81
29247;BME280;16272;48.188;9.964;2023-04-07T04:25:15;95608.56;;;5.81;72.80
29247;BME280;16272;48.188;9.964;2023-04-07T04:27:41;95609.41;;;5.81;74.01
29247;BME280;16272;48.188;9.964;2023-04-07T04:30:07;95600.66;;;5.81;73.67
29247;BME280;16272;48.188;9.964;2023-04-07T04:32:32;95604.69;;;5.85;74.06
29247;BME280;16272;48.188;9.964;2023-04-07T04:34:58;95603.22;;;6.03;73.20
29247;BME280;16272;48.188;9.964;2023-04-07T04:37:24;95609.25;;;6.15;71.76
29247;BME280;16272;48.188;9.964;2023-04-07T04:39:49;95607.69;;;6.13;72.61
29247;BME280;16272;48.188;9.964;2023-04-07T04:42:17;95610.13;;;6.04;72.87
29247;BME280;16272;48.188;9.964;2023-04-07T04:44:42;95611.31;;;6.12;72.21
29247;BME280;16272;48.188;9.964;2023-04-07T04:47:07;95613.22;;;6.10;72.35
29247;BME280;16272;48.188;9.964;2023-04-07T04:49:39;95612.59;;;6.17;72.03
29247;BME280;16272;48.188;9.964;2023-04-07T04:52:05;95607.44;;;6.16;70.51
29247;BME280;16272;48.188;9.964;2023-04-07T04:54:30;95612.47;;;6.19;70.81
29247;BME280;16272;48.188;9.964;2023-04-07T04:56:57;95606.31;;;6.39;68.89
29247;BME280;16272;48.188;9.964;2023-04-07T04:59:22;95611.59;;;6.39;69.20
29247;BME280;16272;48.188;9.964;2023-04-07T05:01:48;95605.16;;;6.53;69.40
29247;BME280;16272;48.188;9.964;2023-04-07T05:04:13;95608.97;;;6.39;69.33
29247;BME280;16272;48.188;9.964;2023-04-07T05:06:38;95611.09;;;6.46;67.72
29247;BME280;16272;48.188;9.964;2023-04-07T05:09:03;95619.66;;;6.38;67.87
29247;BME280;16272;48.188;9.964;2023-04-07T05:11:29;95614.78;;;6.33;67.77
29247;BME280;16272;48.188;9.964;2023-04-07T05:13:54;95617.94;;;6.27;68.44
29247;BME280;16272;48.188;9.964;2023-04-07T05:16:27;95608.06;;;6.29;68.40
29247;BME280;16272;48.188;9.964;2023-04-07T05:18:52;95619.31;;;6.31;68.48
29247;BME280;16272;48.188;9.964;2023-04-07T05:21:26;95602.53;;;6.32;68.32
29247;BME280;16272;48.188;9.964;2023-04-07T05:23:53;95605.16;;;6.53;67.88
29247;BME280;16272;48.188;9.964;2023-04-07T05:26:18;95605.09;;;6.43;68.58
29247;BME280;16272;48.188;9.964;2023-04-07T05:28:44;95600.97;;;6.51;68.43
29247;BME280;16272;48.188;9.964;2023-04-07T05:31:10;95604.34;;;6.53;68.98
29247;BME280;16272;48.188;9.964;2023-04-07T05:33:37;95606.31;;;6.39;68.88
29247;BME280;16272;48.188;9.964;2023-04-07T05:36:09;95621.72;;;6.34;70.22
29247;BME280;16272;48.188;9.964;2023-04-07T05:38:39;95614.41;;;6.17;70.70
29247;BME280;16272;48.188;9.964;2023-04-07T05:41:12;95601.78;;;6.20;72.10
29247;BME280;16272;48.188;9.964;2023-04-07T05:43:39;95612.47;;;6.19;73.10
29247;BME280;16272;48.188;9.964;2023-04-07T05:46:05;95607.38;;;6.27;72.34
29247;BME280;16272;48.188;9.964;2023-04-07T05:48:30;95601.50;;;6.44;69.57
29247;BME280;16272;48.188;9.964;2023-04-07T05:50:56;95602.38;;;6.55;68.96
29247;BME280;16272;48.188;9.964;2023-04-07T05:53:29;95607.81;;;6.32;71.86
29247;BME280;16272;48.188;9.964;2023-04-07T05:55:54;95608.78;;;6.31;72.55
29247;BME280;16272;48.188;9.964;2023-04-07T05:58:28;95595.78;;;6.39;70.94
29247;BME280;16272;48.188;9.964;2023-04-07T06:00:53;95602.91;;;6.49;70.57
29247;BME280;16272;48.188;9.964;2023-04-07T06:03:19;95595.47;;;6.63;69.60
29247;BME280;16272;48.188;9.964;2023-04-07T06:05:48;95598.28;;;6.72;69.85
29247;BME280;16272;48.188;9.964;2023-04-07T06:08:13;95601.22;;;6.48;71.95
29247;BME280;16272;48.188;9.964;2023-04-07T06:10:38;95601.94;;;6.50;71.68
29247;BME280;16272;48.188;9.964;2023-04-07T06:13:05;95594.03;;;6.50;72.34
29247;BME280;16272;48.188;9.964;2023-04-07T06:15:31;95593.69;;;6.64;71.94
29247;BME280;16272;48.188;9.964;2023-04-07T06:17:57;95594.81;;;6.40;72.98
29247;BME280;16272;48.188;9.964;2023-04-07T06:20:22;95597.09;;;6.24;72.96
29247;BME280;16272;48.188;9.964;2023-04-07T06:22:48;95585.41;;;6.48;72.51
29247;BME280;16272;48.188;9.964;2023-04-07T06:25:13;95588.59;;;5.99;74.56
29247;BME280;16272;48.188;9.964;2023-04-07T06:27:39;95591.19;;;6.11;73.88
29247;BME280;16272;48.188;9.964;2023-04-07T06:30:04;95593.09;;;6.60;73.14
29247;BME280;16272;48.188;9.964;2023-04-07T06:32:30;95593.41;;;6.67;72.15
29247;BME280;16272;48.188;9.964;2023-04-07T06:34:56;95597.53;;;6.60;72.02
29247;BME280;16272;48.188;9.964;2023-04-07T06:37:22;95596.88;;;6.37;73.66
29247;BME280;16272;48.188;9.964;2023-04-07T06:39:49;95594.38;;;6.35;74.14
29247;BME280;16272;48.188;9.964;2023-04-07T06:42:14;95598.25;;;6.10;75.07
29247;BME280;16272;48.188;9.964;2023-04-07T06:44:40;95591.56;;;6.58;73.56
29247;BME280;16272;48.188;9.964;2023-04-07T06:47:05;95591.09;;;6.84;73.07
29247;BME280;16272;48.188;9.964;2023-04-07T06:49:30;95589.50;;;7.02;72.90
29247;BME280;16272;48.188;9.964;2023-04-07T06:51:56;95592.31;;;7.10;71.79
29247;BME280;16272;48.188;9.964;2023-04-07T06:54:21;95590.03;;;6.96;72.83
29247;BME280;16272;48.188;9.964;2023-04-07T06:56:46;95594.38;;;7.16;72.64
29247;BME280;16272;48.188;9.964;2023-04-07T06:59:12;95593.19;;;7.30;70.87
29247;BME280;16272;48.188;9.964;2023-04-07T07:01:37;95588.16;;;7.17;71.96
29247;BME280;16272;48.188;9.964;2023-04-07T07:04:02;95598.50;;;7.60;70.23
29247;BME280;16272;48.188;9.964;2023-04-07T07:06:30;95595.72;;;7.71;69.30
29247;BME280;16272;48.188;9.964;2023-04-07T07:08:56;95594.25;;;8.35;67.18
29247;BME280;16272;48.188;9.964;2023-04-07T07:11:21;95593.97;;;8.38;67.27
29247;BME280;16272;48.188;9.964;2023-04-07T07:13:46;95587.78;;;8.00;67.31
29247;BME280;16272;48.188;9.964;2023-04-07T07:16:12;95594.28;;;8.16;67.87
29247;BME280;16272;48.188;9.964;2023-04-07T07:18:37;95592.34;;;8.08;69.57
29247;BME280;16272;48.188;9.964;2023-04-07T07:21:03;95585.09;;;8.20;69.45
29247;BME280;16272;48.188;9.964;2023-04-07T07:23:29;95584.75;;;8.52;67.34
29247;BME280;16272;48.188;9.964;2023-04-07T07:25:55;95584.69;;;8.72;66.81
29247;BME280;16272;48.188;9.964;2023-04-07T07:28:20;95588.19;;;9.00;66.22
29247;BME280;16272;48.188;9.964;2023-04-07T07:30:46;95593.44;;;9.10;65.48
29247;BME280;16272;48.188;9.964;2023-04-07T07:33:12;95587.06;;;9.02;63.78
29247;BME280;16272;48.188;9.964;2023-04-07T07:35:39;95594.13;;;9.40;63.02
29247;BME280;16272;48.188;9.964;2023-04-07T07:38:05;95589.59;;;9.50;62.18
29247;BME280;16272;48.188;9.964;2023-04-07T07:40:32;95593.22;;;9.49;63.00
29247;BME280;16272;48.188;9.964;2023-04-07T07:42:57;95590.19;;;9.80;62.80
29247;BME280;16272;48.188;9.964;2023-04-07T07:45:24;95589.47;;;9.69;61.83
29247;BME280;16272;48.188;9.964;2023-04-07T07:47:50;95599.50;;;9.30;61.67
29247;BME280;16272;48.188;9.964;2023-04-07T07:50:15;95588.44;;;9.70;60.26
29247;BME280;16272;48.188;9.964;2023-04-07T07:52:43;95588.38;;;9.62;60.62
29247;BME280;16272;48.188;9.964;2023-04-07T07:55:08;95595.81;;;9.77;60.58
29247;BME280;16272;48.188;9.964;2023-04-07T07:57:40;95586.84;;;10.14;60.54
29247;BME280;16272;48.188;9.964;2023-04-07T08:00:06;95591.66;;;10.36;59.86
29247;BME280;16272;48.188;9.964;2023-04-07T08:02:38;95583.75;;;10.44;59.74
29247;BME280;16272;48.188;9.964;2023-04-07T08:05:04;95590.94;;;9.90;60.23
29247;BME280;16272;48.188;9.964;2023-04-07T08:07:31;95593.91;;;10.31;62.07
29247;BME280;16272;48.188;9.964;2023-04-07T08:09:56;95584.59;;;9.83;62.15
29247;BME280;16272;48.188;9.964;2023-04-07T08:12:21;95588.34;;;10.60;60.58
29247;BME280;16272;48.188;9.964;2023-04-07T08:14:48;95582.63;;;11.16;58.95
29247;BME280;16272;48.188;9.964;2023-04-07T08:17:14;95577.50;;;11.22;58.20
29247;BME280;16272;48.188;9.964;2023-04-07T08:19:39;95590.31;;;10.32;58.31
29247;BME280;16272;48.188;9.964;2023-04-07T08:22:04;95586.16;;;10.56;59.70
29247;BME280;16272;48.188;9.964;2023-04-07T08:24:31;95590.03;;;10.35;60.80
29247;BME280;16272;48.188;9.964;2023-04-07T08:26:56;95593.81;;;10.15;58.03
29247;BME280;16272;48.188;9.964;2023-04-07T08:29:22;95582.47;;;10.48;59.81
29247;BME280;16272;48.188;9.964;2023-04-07T08:31:50;95592.53;;;10.63;60.05
29247;BME280;16272;48.188;9.964;2023-04-07T08:34:15;95590.38;;;11.01;59.08
29247;BME280;16272;48.188;9.964;2023-04-07T08:36:41;95593.50;;;10.62;57.02
29247;BME280;16272;48.188;9.964;2023-04-07T08:39:06;95595.75;;;10.48;57.57
29247;BME280;16272;48.188;9.964;2023-04-07T08:41:40;95586.13;;;10.82;58.30
29247;BME280;16272;48.188;9.964;2023-04-07T08:44:06;95591.47;;;10.56;57.94
29247;BME280;16272;48.188;9.964;2023-04-07T08:46:33;95592.03;;;10.94;58.40
29247;BME280;16272;48.188;9.964;2023-04-07T08:49:00;95586.00;;;11.93;61.96
29247;BME280;16272;48.188;9.964;2023-04-07T08:51:30;95582.22;;;12.93;56.75
29247;BME280;16272;48.188;9.964;2023-04-07T08:54:09;95584.34;;;11.92;53.67
29247;BME280;16272;48.188;9.964;2023-04-07T08:56:40;95590.13;;;12.54;56.26
29247;BME280;16272;48.188;9.964;2023-04-07T08:59:07;95579.53;;;12.93;58.08
29247;BME280;16272;48.188;9.964;2023-04-07T09:01:34;95585.16;;;13.54;56.33
29247;BME280;16272;48.188;9.964;2023-04-07T09:04:01;95580.91;;;14.14;51.29
29247;BME280;16272;48.188;9.964;2023-04-07T09:06:29;95570.63;;;13.57;49.84
29247;BME280;16272;48.188;9.964;2023-04-07T09:08:59;95574.41;;;13.71;47.04
29247;BME280;16272;48.188;9.964;2023-04-07T09:11:26;95574.31;;;14.63;50.62
29247;BME280;16272;48.188;9.964;2023-04-07T09:13:52;95578.66;;;14.41;48.55
29247;BME280;16272;48.188;9.964;2023-04-07T09:16:17;95572.72;;;13.93;49.46
29247;BME280;16272;48.188;9.964;2023-04-07T09:18:43;95575.97;;;13.57;52.35
29247;BME280;16272;48.188;9.964;2023-04-07T09:21:08;95569.00;;;13.79;53.17
29247;BME280;16272;48.188;9.964;2023-04-07T09:23:39;95568.50;;;14.22;53.83
29247;BME280;16272;48.188;9.964;2023-04-07T09:26:20;95566.69;;;15.05;55.36
29247;BME280;16272;48.188;9.964;2023-04-07T09:28:48;95556.88;;;15.42;52.75
29247;BME280;16272;48.188;9.964;2023-04-07T09:31:15;95558.00;;;15.84;52.92
29247;BME280;16272;48.188;9.964;2023-04-07T09:33:41;95558.63;;;15.86;44.63
29247;BME280;16272;48.188;9.964;2023-04-07T09:36:07;95561.53;;;14.88;47.61
29247;BME280;16272;48.188;9.964;2023-04-07T09:38:34;95560.06;;;14.71;45.21
29247;BME280;16272;48.188;9.964;2023-04-07T09:41:14;95561.59;;;14.65;48.08
29247;BME280;16272;48.188;9.964;2023-04-07T09:43:44;95567.63;;;14.44;48.58
29247;BME280;16272;48.188;9.964;2023-04-07T09:46:14;95571.66;;;14.25;45.91
29247;BME280;16272;48.188;9.964;2023-04-07T09:48:41;95565.50;;;14.63;49.88
29247;BME280;16272;48.188;9.964;2023-04-07T09:51:16;95565.03;;;15.04;44.33
29247;BME280;16272;48.188;9.964;2023-04-07T09:53:44;95562.56;;;15.02;44.91
29247;BME280;16272;48.188;9.964;2023-04-07T09:56:10;95562.00;;;15.07;48.86
29247;BME280;16272;48.188;9.964;2023-04-07T09:58:37;95557.47;;;14.63;46.30
29247;BME280;16272;48.188;9.964;2023-04-07T10:01:06;95562.28;;;14.82;50.78
29247;BME280;16272;48.188;9.964;2023-04-07T10:03:37;95554.16;;;15.20;48.65
29247;BME280;16272;48.188;9.964;2023-04-07T10:06:05;95558.53;;;14.15;48.25
29247;BME280;16272;48.188;9.964;2023-04-07T10:08:33;95548.63;;;14.92;48.73
29247;BME280;16272;48.188;9.964;2023-04-07T10:11:02;95547.84;;;14.53;43.45
29247;BME280;16272;48.188;9.964;2023-04-07T10:13:33;95555.53;;;15.01;47.36
29247;BME280;16272;48.188;9.964;2023-04-07T10:16:02;95546.91;;;15.72;42.36
29247;BME280;16272;48.188;9.964;2023-04-07T10:18:29;95548.09;;;16.06;42.17
29247;BME280;16272;48.188;9.964;2023-04-07T10:21:03;95546.31;;;15.55;45.71
29247;BME280;16272;48.188;9.964;2023-04-07T10:26:22;95563.19;;;14.89;47.41
29247;BME280;16272;48.188;9.964;2023-04-07T10:28:52;95559.97;;;15.09;44.36
29247;BME280;16272;48.188;9.964;2023-04-07T10:31:21;95556.44;;;14.94;46.67
29247;BME280;16272;48.188;9.964;2023-04-07T10:33:51;95554.50;;;14.58;46.28
29247;BME280;16272;48.188;9.964;2023-04-07T10:36:19;95555.44;;;14.80;46.12
29247;BME280;16272;48.188;9.964;2023-04-07T10:43:58;95547.84;;;14.53;44.20
29247;BME280;16272;48.188;9.964;2023-04-07T10:46:24;95549.44;;;15.22;43.35
29247;BME280;16272;48.188;9.964;2023-04-07T10:49:07;95552.78;;;15.61;43.87
29247;BME280;16272;48.188;9.964;2023-04-07T10:51:33;95550.34;;;16.03;42.81
29247;BME280;16272;48.188;9.964;2023-04-07T10:54:19;95549.97;;;15.33;43.45
29247;BME280;16272;48.188;9.964;2023-04-07T10:57:05;95547.56;;;15.23;43.76
29247;BME280;16272;48.188;9.964;2023-04-07T10:59:35;95546.41;;;14.96;46.04
29247;BME280;16272;48.188;9.964;2023-04-07T11:04:40;95555.72;;;13.94;44.03
29247;BME280;16272;48.188;9.964;2023-04-07T11:07:06;95559.41;;;14.31;47.29
29247;BME280;16272;48.188;9.964;2023-04-07T11:09:31;95552.69;;;14.73;45.02
29247;BME280;16272;48.188;9.964;2023-04-07T11:12:06;95551.50;;;13.76;46.05
29247;BME280;16272;48.188;9.964;2023-04-07T11:14:34;95546.00;;;15.29;44.92
29247;BME280;16272;48.188;9.964;2023-04-07T11:17:02;95544.84;;;14.72;44.82
29247;BME280;16272;48.188;9.964;2023-04-07T11:19:28;95545.97;;;14.54;44.15
29247;BME280;16272;48.188;9.964;2023-04-07T11:22:15;95551.94;;;14.64;43.40
29247;BME280;16272;48.188;9.964;2023-04-07T11:24:44;95561.72;;;14.34;44.75
29247;BME280;16272;48.188;9.964;2023-04-07T11:27:15;95556.22;;;14.12;47.16
29247;BME280;16272;48.188;9.964;2023-04-07T11:29:41;95552.88;;;14.86;45.94
29247;BME280;16272;48.188;9.964;2023-04-07T11:32:07;95556.13;;;13.20;52.03
29247;BME280;16272;48.188;9.964;2023-04-07T11:34:36;95568.69;;;12.30;53.09
29247;BME280;16272;48.188;9.964;2023-04-07T11:37:37;95559.00;;;12.46;52.69
29247;BME280;16272;48.188;9.964;2023-04-07T11:40:05;95560.34;;;12.42;53.59
29247;BME280;16272;48.188;9.964;2023-04-07T11:42:33;95564.44;;;12.85;50.58
29247;BME280;16272;48.188;9.964;2023-04-07T11:44:59;95562.28;;;14.06;49.40
29247;BME280;16272;48.188;9.964;2023-04-07T11:47:38;95558.97;;;14.42;48.17
29247;BME280;16272;48.188;9.964;2023-04-07T11:50:06;95560.50;;;13.75;47.56
29247;BME280;16272;48.188;9.964;2023-04-07T11:52:46;95564.53;;;13.71;49.06
29247;BME280;16272;48.188;9.964;2023-04-07T11:55:19;95569.44;;;13.28;48.60
29247;BME280;16272;48.188;9.964;2023-04-07T11:57:46;95567.97;;;14.03;47.97
29247;BME280;16272;48.188;9.964;2023-04-07T12:00:13;95563.19;;;13.04;49.66
29247;BME280;16272;48.188;9.964;2023-04-07T12:02:40;95565.75;;;13.29;50.15
29247;BME280;16272;48.188;9.964;2023-04-07T12:05:06;95572.38;;;13.41;49.91
29247;BME280;16272;48.188;9.964;2023-04-07T12:07:31;95569.53;;;12.95;48.80
29247;BME280;16272;48.188;9.964;2023-04-07T12:09:57;95568.75;;;13.34;48.69
29247;BME280;16272;48.188;9.964;2023-04-07T12:12:27;95557.50;;;13.08;50.61
29247;BME280;16272;48.188;9.964;2023-04-07T12:14:53;95562.94;;;12.75;47.80
29247;BME280;16272;48.188;9.964;2023-04-07T12:17:20;95558.75;;;13.28;47.91
29247;BME280;16272;48.188;9.964;2023-04-07T12:19:52;95567.00;;;13.50;46.92
29247;BME280;16272;48.188;9.964;2023-04-07T12:22:18;95562.88;;;12.99;46.15
29247;BME280;16272;48.188;9.964;2023-04-07T12:24:44;95558.09;;;12.78;47.04
29247;BME280;16272;48.188;9.964;2023-04-07T12:27:11;95564.44;;;13.25;47.13
29247;BME280;16272;48.188;9.964;2023-04-07T12:29:37;95561.69;;;13.73;47.20
29247;BME280;16272;48.188;9.964;2023-04-07T12:32:03;95559.19;;;13.09;46.98
29247;BME280;16272;48.188;9.964;2023-04-07T12:34:29;95566.75;;;13.28;49.07
29247;BME280;16272;48.188;9.964;2023-04-07T12:36:54;95569.53;;;13.74;49.06
29247;BME280;16272;48.188;9.964;2023-04-07T12:39:20;95565.25;;;13.34;49.47
29247;BME280;16272;48.188;9.964;2023-04-07T12:41:46;95562.34;;;13.75;48.29
29247;BME280;16272;48.188;9.964;2023-04-07T12:44:14;95563.00;;;14.23;48.14
29247;BME280;16272;48.188;9.964;2023-04-07T12:46:40;95562.34;;;14.36;47.67
29247;BME280;16272;48.188;9.964;2023-04-07T12:49:07;95561.53;;;14.36;47.72
29247;BME280;16272;48.188;9.964;2023-04-07T12:51:32;95559.44;;;13.85;48.84
29247;BME280;16272;48.188;9.964;2023-04-07T12:53:58;95565.38;;;13.95;48.68
29247;BME280;16272;48.188;9.964;2023-04-07T12:56:31;95562.63;;;12.78;51.20
29247;BME280;16272;48.188;9.964;2023-04-07T12:58:58;95566.31;;;12.60;51.32
29247;BME280;16272;48.188;9.964;2023-04-07T13:01:23;95564.50;;;12.44;51.96
29247;BME280;16272;48.188;9.964;2023-04-07T13:03:48;95572.44;;;13.33;50.78
29247;BME280;16272;48.188;9.964;2023-04-07T13:06:16;95578.91;;;12.83;50.71
29247;BME280;16272;48.188;9.964;2023-04-07T13:08:41;95571.63;;;11.70;52.44
29247;BME280;16272;48.188;9.964;2023-04-07T13:11:07;95594.88;;;10.22;54.99
29247;BME280;16272;48.188;9.964;2023-04-07T13:13:32;95593.97;;;9.95;57.25
29247;BME280;16272;48.188;9.964;2023-04-07T13:15:59;95588.91;;;10.72;55.81
29247;BME280;16272;48.188;9.964;2023-04-07T13:18:24;95600.50;;;10.01;57.39
29247;BME280;16272;48.188;9.964;2023-04-07T13:20:50;95597.47;;;10.14;57.02
29247;BME280;16272;48.188;9.964;2023-04-07T13:23:15;95600.47;;;10.19;58.20